Terminal Aerodrome Forecast
Issued by NWS

Home | Current Version | Previous Version | Text Only | Print | Product List | Glossary On
Versions: 1 2 3 4 5 6 7 8 9 10 11 12 13 14 15 16 17
000
FTUS45 KRIW 020500
TAFCPR
TAF
KCPR 020536Z 0206/0306 VRB06KT P6SM SCT080 SCT150
     FM021500 21011KT P6SM SCT050 BKN080
     FM022200 03007KT P6SM VCSH SCT030 OVC050
     FM030200 02014G20KT 1SM -SN BLSN OVC008=

USA.gov is the U.S. government's official web portal to all federal, state and local government web resources and services.